createdAt,value
2023-03-16T00:00:35.351Z,5.37
2023-03-16T00:03:03.861Z,5.38
2023-03-16T00:05:33.790Z,5.41
2023-03-16T00:08:02.217Z,5.35
2023-03-16T00:10:31.000Z,4.85
2023-03-16T00:12:59.453Z,5.26
2023-03-16T00:15:27.940Z,5.21
2023-03-16T00:17:56.462Z,5.23
2023-03-16T00:20:25.107Z,5.14
2023-03-16T00:22:55.090Z,5.04
2023-03-16T00:25:24.443Z,5.01
2023-03-16T00:27:52.877Z,4.94
2023-03-16T00:30:21.443Z,4.92
2023-03-16T00:32:49.803Z,4.88
2023-03-16T00:35:19.188Z,4.85
2023-03-16T00:37:47.563Z,4.86
2023-03-16T00:40:17.832Z,4.87
2023-03-16T00:42:46.400Z,4.91
2023-03-16T00:45:14.821Z,4.92
2023-03-16T00:47:43.591Z,4.94
2023-03-16T00:50:12.882Z,4.75
2023-03-16T00:52:42.368Z,4.90
2023-03-16T00:55:11.362Z,4.88
2023-03-16T00:57:41.775Z,4.90
2023-03-16T01:00:16.757Z,4.90
2023-03-16T01:02:46.647Z,4.79
2023-03-16T01:05:16.059Z,4.78
2023-03-16T01:07:45.376Z,4.81
2023-03-16T01:10:14.643Z,4.74
2023-03-16T01:12:45.455Z,4.71
2023-03-16T01:15:14.880Z,4.55
2023-03-16T01:17:43.181Z,4.57
2023-03-16T01:20:15.117Z,4.49
2023-03-16T01:22:43.618Z,4.39
2023-03-16T01:25:13.438Z,4.37
2023-03-16T01:27:44.493Z,4.40
2023-03-16T01:30:14.223Z,4.41
2023-03-16T01:32:43.579Z,4.17
2023-03-16T01:35:14.800Z,4.30
2023-03-16T01:37:43.301Z,4.34
2023-03-16T01:40:17.728Z,4.40
2023-03-16T01:42:50.542Z,4.52
2023-03-16T01:46:10.987Z,4.58
2023-03-16T01:48:46.424Z,4.29
2023-03-16T01:51:21.226Z,4.48
2023-03-16T01:53:54.810Z,4.44
2023-03-16T01:56:28.608Z,4.46
2023-03-16T01:59:01.735Z,4.44
2023-03-16T02:01:31.072Z,4.42
2023-03-16T02:04:08.769Z,4.44
2023-03-16T02:06:39.284Z,4.56
2023-03-16T02:09:09.011Z,4.61
2023-03-16T02:11:38.299Z,4.61
2023-03-16T02:14:14.269Z,4.53
2023-03-16T02:16:44.050Z,4.45
2023-03-16T02:19:21.255Z,4.49
2023-03-16T02:21:57.360Z,4.50
2023-03-16T02:24:25.946Z,4.44
2023-03-16T02:26:58.806Z,4.49
2023-03-16T02:29:57.888Z,4.51
2023-03-16T02:32:30.931Z,4.47
2023-03-16T02:35:01.840Z,4.42
2023-03-16T02:37:34.034Z,4.38
2023-03-16T02:40:05.806Z,4.37
2023-03-16T02:42:34.797Z,4.30
2023-03-16T02:45:06.597Z,4.20
2023-03-16T02:47:45.874Z,4.09
2023-03-16T02:50:15.056Z,3.93
2023-03-16T02:52:43.447Z,3.83
2023-03-16T02:55:12.346Z,3.76
2023-03-16T02:57:41.063Z,3.75
2023-03-16T03:00:18.492Z,3.76
2023-03-16T03:02:50.402Z,3.72
2023-03-16T03:05:18.906Z,3.69
2023-03-16T03:07:47.424Z,3.73
2023-03-16T03:10:15.874Z,4.94
2023-03-16T03:12:44.465Z,4.32
2023-03-16T03:15:13.288Z,4.08
2023-03-16T03:17:51.953Z,3.93
2023-03-16T03:20:21.750Z,3.76
2023-03-16T03:22:52.904Z,3.75
2023-03-16T03:25:22.564Z,3.73
2023-03-16T03:27:54.824Z,3.75
2023-03-16T03:30:26.185Z,3.75
2023-03-16T03:32:56.284Z,3.69
2023-03-16T03:35:24.891Z,3.55
2023-03-16T03:37:53.415Z,3.48
2023-03-16T03:40:22.716Z,3.54
2023-03-16T03:42:57.894Z,3.68
2023-03-16T03:45:27.358Z,3.72
2023-03-16T03:47:57.345Z,3.69
2023-03-16T03:50:26.580Z,3.66
2023-03-16T03:53:09.276Z,3.59
2023-03-16T03:55:50.960Z,3.51
2023-03-16T03:58:19.501Z,3.43
2023-03-16T04:00:48.110Z,3.41
2023-03-16T04:03:17.984Z,3.39
2023-03-16T04:05:47.291Z,3.37
2023-03-16T04:08:16.042Z,3.15
2023-03-16T04:10:44.831Z,3.28
2023-03-16T04:13:13.147Z,3.13
2023-03-16T04:15:41.574Z,3.22
2023-03-16T04:18:19.664Z,3.16
2023-03-16T04:20:48.444Z,3.07
2023-03-16T04:23:20.069Z,3.01
2023-03-16T04:25:50.582Z,2.96
2023-03-16T04:28:20.898Z,2.88
2023-03-16T04:30:54.664Z,2.90
2023-03-16T04:33:30.448Z,2.80
2023-03-16T04:35:59.072Z,2.63
2023-03-16T04:38:28.318Z,2.59
2023-03-16T04:40:59.901Z,2.61
2023-03-16T04:43:34.624Z,2.48
2023-03-16T04:46:10.356Z,2.59
2023-03-16T04:48:40.696Z,2.60
2023-03-16T04:51:10.333Z,2.61
2023-03-16T04:53:43.128Z,2.59
2023-03-16T04:56:19.525Z,2.59
2023-03-16T04:58:53.821Z,2.47
2023-03-16T05:01:26.346Z,2.39
2023-03-16T05:04:00.382Z,2.42
2023-03-16T05:06:31.330Z,2.32
2023-03-16T05:09:02.150Z,2.39
2023-03-16T05:11:31.564Z,2.39
2023-03-16T05:14:03.487Z,2.32
2023-03-16T05:16:34.954Z,2.35
2023-03-16T05:19:05.609Z,2.35
2023-03-16T05:21:37.972Z,2.29
2023-03-16T05:24:10.183Z,2.26
2023-03-16T05:26:38.738Z,2.13
2023-03-16T05:29:11.232Z,2.00
2023-03-16T05:31:39.744Z,1.95
2023-03-16T05:34:15.557Z,1.90
2023-03-16T05:36:45.203Z,1.99
2023-03-16T05:39:17.134Z,2.01
2023-03-16T05:41:49.180Z,2.02
2023-03-16T05:44:45.009Z,2.08
2023-03-16T05:47:43.734Z,1.98
2023-03-16T05:50:17.097Z,1.97
2023-03-16T05:52:46.902Z,2.01
2023-03-16T05:55:21.604Z,2.02
2023-03-16T05:57:56.491Z,2.07
2023-03-16T06:00:27.882Z,2.05
2023-03-16T06:03:07.639Z,2.04
2023-03-16T06:05:39.391Z,1.89
2023-03-16T06:08:09.300Z,1.90
2023-03-16T06:10:39.555Z,1.93
2023-03-16T06:13:08.139Z,1.96
2023-03-16T06:15:36.512Z,1.90
2023-03-16T06:18:05.267Z,2.00
2023-03-16T06:20:33.664Z,2.04
2023-03-16T06:23:04.602Z,2.13
2023-03-16T06:25:33.823Z,2.17
2023-03-16T06:28:02.751Z,2.19
2023-03-16T06:30:31.344Z,2.29
2023-03-16T06:33:00.524Z,2.32
2023-03-16T06:35:29.199Z,2.43
2023-03-16T06:38:13.517Z,2.52
2023-03-16T06:41:00.727Z,2.59
2023-03-16T06:43:29.790Z,2.72
2023-03-16T06:45:59.137Z,2.02
2023-03-16T06:48:27.711Z,3.13
2023-03-16T06:50:56.209Z,3.32
2023-03-16T06:53:30.024Z,3.51
2023-03-16T06:55:59.432Z,3.71
2023-03-16T06:58:29.345Z,3.93
2023-03-16T07:00:57.882Z,4.19
2023-03-16T07:03:26.317Z,4.38
2023-03-16T07:06:01.807Z,4.58
2023-03-16T07:08:31.754Z,4.82
2023-03-16T07:11:00.257Z,4.98
2023-03-16T07:13:28.789Z,5.25
2023-03-16T07:15:57.258Z,5.73
2023-03-16T07:18:27.241Z,6.05
2023-03-16T07:20:56.422Z,6.23
2023-03-16T07:23:27.535Z,6.57
2023-03-16T07:26:04.947Z,6.80
2023-03-16T07:28:35.399Z,7.02
2023-03-16T07:31:05.256Z,7.25
2023-03-16T07:33:39.158Z,7.43
2023-03-16T07:36:11.816Z,7.61
2023-03-16T07:38:46.449Z,7.81
2023-03-16T07:41:16.716Z,8.01
2023-03-16T07:43:45.495Z,8.19
2023-03-16T07:46:16.687Z,8.43
2023-03-16T07:48:46.613Z,8.65
2023-03-16T07:51:15.800Z,8.80
2023-03-16T07:53:49.017Z,8.89
2023-03-16T07:56:23.409Z,8.96
2023-03-16T07:58:55.548Z,9.00
2023-03-16T08:01:24.712Z,9.15
2023-03-16T08:03:53.691Z,9.44
2023-03-16T08:06:22.676Z,9.74
2023-03-16T08:08:51.476Z,10.00
2023-03-16T08:11:41.791Z,10.18
2023-03-16T08:14:10.789Z,10.25
2023-03-16T08:16:56.915Z,10.41
2023-03-16T08:19:27.575Z,10.44
2023-03-16T08:22:01.711Z,10.41
2023-03-16T08:24:37.370Z,10.43
2023-03-16T08:27:09.432Z,10.50
2023-03-16T08:29:40.974Z,10.56
2023-03-16T08:32:14.619Z,10.56
2023-03-16T08:34:46.174Z,10.64
2023-03-16T08:37:16.463Z,10.59
2023-03-16T08:39:46.707Z,10.79
2023-03-16T08:42:20.029Z,10.89
2023-03-16T08:44:55.574Z,10.92
2023-03-16T08:47:25.962Z,11.05
2023-03-16T08:49:56.004Z,11.19
2023-03-16T08:52:26.144Z,11.33
2023-03-16T08:55:02.944Z,11.51
2023-03-16T08:57:35.254Z,11.75
2023-03-16T09:00:09.683Z,11.97
2023-03-16T09:02:38.881Z,12.17
2023-03-16T09:05:08.997Z,12.37
2023-03-16T09:07:37.478Z,12.46
2023-03-16T09:10:06.976Z,12.55
2023-03-16T09:12:39.113Z,12.63
2023-03-16T09:15:10.309Z,12.64
2023-03-16T09:17:39.060Z,12.72
2023-03-16T09:20:21.859Z,12.75
2023-03-16T09:22:51.084Z,12.72
2023-03-16T09:25:20.121Z,12.76
2023-03-16T09:27:49.987Z,12.78
2023-03-16T09:30:19.053Z,12.84
2023-03-16T09:32:49.308Z,12.85
2023-03-16T09:35:18.074Z,12.87
2023-03-16T09:38:04.723Z,12.94
2023-03-16T09:40:38.383Z,13.00
2023-03-16T09:43:25.076Z,12.87
2023-03-16T09:46:05.676Z,13.04
2023-03-16T09:48:36.964Z,13.07
2023-03-16T09:51:08.493Z,13.13
2023-03-16T09:53:40.001Z,13.17
2023-03-16T09:56:12.409Z,13.25
2023-03-16T09:58:42.415Z,13.29
2023-03-16T10:01:19.557Z,13.35
2023-03-16T10:04:06.841Z,13.41
2023-03-16T10:06:40.546Z,13.43
2023-03-16T10:09:23.650Z,13.49
2023-03-16T10:11:56.173Z,13.54
2023-03-16T10:14:31.825Z,13.67
2023-03-16T10:17:05.226Z,13.08
2023-03-16T10:19:41.482Z,13.67
2023-03-16T10:22:19.934Z,13.89
2023-03-16T10:24:59.251Z,13.96
2023-03-16T10:27:31.652Z,14.01
2023-03-16T10:30:03.266Z,14.08
2023-03-16T10:32:34.773Z,14.21
2023-03-16T10:35:07.263Z,14.32
2023-03-16T10:37:37.533Z,14.43
2023-03-16T10:40:12.570Z,14.58
2023-03-16T10:42:41.677Z,14.73
2023-03-16T10:45:24.232Z,14.83
2023-03-16T10:47:52.786Z,14.87
2023-03-16T10:50:27.920Z,14.98
2023-03-16T10:52:58.265Z,15.09
2023-03-16T10:55:30.777Z,15.23
2023-03-16T10:57:59.860Z,15.39
2023-03-16T11:00:31.543Z,15.52
2023-03-16T11:03:02.670Z,15.75
2023-03-16T11:05:35.087Z,15.94
2023-03-16T11:08:10.795Z,16.16
2023-03-16T11:10:54.573Z,16.35
2023-03-16T11:13:24.837Z,16.48
2023-03-16T11:16:01.815Z,16.53
2023-03-16T11:18:32.497Z,15.94
2023-03-16T11:21:07.831Z,16.70
2023-03-16T11:23:42.360Z,16.75
2023-03-16T11:26:20.117Z,16.78
2023-03-16T11:28:56.520Z,16.80
2023-03-16T11:31:39.430Z,16.80
2023-03-16T11:34:16.097Z,16.81
2023-03-16T11:36:51.605Z,16.78
2023-03-16T11:39:33.001Z,16.99
2023-03-16T11:42:25.375Z,17.00
2023-03-16T11:45:00.553Z,16.86
2023-03-16T11:47:56.854Z,16.97
2023-03-16T11:50:30.705Z,16.99
2023-03-16T11:53:05.382Z,17.06
2023-03-16T11:55:43.483Z,17.14
2023-03-16T11:58:25.979Z,17.12
2023-03-16T12:01:03.057Z,17.08
2023-03-16T12:03:46.904Z,17.07
2023-03-16T12:06:25.682Z,17.05
2023-03-16T12:09:37.970Z,17.06
2023-03-16T12:12:21.534Z,17.07
2023-03-16T12:15:03.796Z,17.10
2023-03-16T12:17:37.604Z,17.12
2023-03-16T12:20:16.200Z,17.21
2023-03-16T12:22:47.541Z,17.23
2023-03-16T12:25:22.448Z,17.18
2023-03-16T12:27:54.590Z,17.38
2023-03-16T12:30:35.923Z,17.34
2023-03-16T12:33:10.663Z,17.33
2023-03-16T12:35:48.099Z,17.33
2023-03-16T12:38:38.589Z,17.31
2023-03-16T12:41:20.956Z,17.30
2023-03-16T12:44:03.100Z,17.12
2023-03-16T12:46:40.830Z,17.25
2023-03-16T12:49:10.650Z,17.22
2023-03-16T12:51:42.698Z,17.28
2023-03-16T12:54:20.916Z,17.38
2023-03-16T12:56:51.875Z,17.41
2023-03-16T12:59:22.862Z,17.40
2023-03-16T13:01:54.815Z,17.43
2023-03-16T13:04:32.562Z,17.38
2023-03-16T13:07:06.381Z,17.16
2023-03-16T13:09:37.726Z,17.16
2023-03-16T13:12:06.805Z,17.37
2023-03-16T13:14:40.649Z,17.31
2023-03-16T13:17:25.263Z,17.48
2023-03-16T13:20:02.419Z,17.48
2023-03-16T13:22:44.010Z,17.46
2023-03-16T13:25:22.622Z,17.55
2023-03-16T13:27:55.632Z,17.65
2023-03-16T13:30:29.057Z,17.75
2023-03-16T13:33:02.055Z,17.81
2023-03-16T13:35:33.116Z,17.80
2023-03-16T13:38:06.922Z,17.85
2023-03-16T13:40:38.218Z,17.85
2023-03-16T13:43:06.892Z,17.80
2023-03-16T13:45:39.376Z,17.78
2023-03-16T13:48:07.837Z,17.73
2023-03-16T13:50:38.744Z,17.73
2023-03-16T13:53:15.836Z,17.76
2023-03-16T13:55:48.170Z,17.06
2023-03-16T13:58:23.695Z,17.70
2023-03-16T14:00:57.329Z,17.63
2023-03-16T14:03:34.107Z,17.55
2023-03-16T14:06:03.551Z,17.50
2023-03-16T14:08:34.161Z,17.51
2023-03-16T14:11:04.017Z,17.48
2023-03-16T14:13:39.464Z,17.36
2023-03-16T14:16:14.634Z,17.40
2023-03-16T14:18:46.141Z,17.46
2023-03-16T14:21:18.089Z,16.75
2023-03-16T14:23:53.089Z,17.50
2023-03-16T14:26:24.597Z,17.42
2023-03-16T14:28:58.675Z,17.41
2023-03-16T14:31:38.401Z,17.37
2023-03-16T14:34:20.131Z,17.32
2023-03-16T14:36:48.615Z,17.26
2023-03-16T14:39:22.339Z,17.23
2023-03-16T14:41:52.133Z,17.15
2023-03-16T14:44:23.541Z,16.96
2023-03-16T14:46:54.284Z,17.05
2023-03-16T14:49:25.815Z,16.99
2023-03-16T14:51:57.057Z,16.95
2023-03-16T14:54:29.186Z,16.87
2023-03-16T14:57:02.088Z,16.87
2023-03-16T14:59:30.782Z,16.92
2023-03-16T15:02:00.098Z,16.87
2023-03-16T15:04:32.345Z,16.85
2023-03-16T15:07:02.082Z,16.86
2023-03-16T15:09:37.253Z,16.90
2023-03-16T15:12:06.394Z,16.90
2023-03-16T15:14:52.380Z,16.89
2023-03-16T15:17:20.756Z,16.82
2023-03-16T15:19:50.605Z,16.84
2023-03-16T15:22:24.464Z,16.80
2023-03-16T15:24:54.744Z,16.74
2023-03-16T15:27:26.530Z,16.72
2023-03-16T15:29:55.046Z,16.71
2023-03-16T15:32:23.414Z,16.72
2023-03-16T15:34:51.884Z,16.64
2023-03-16T15:37:23.858Z,16.66
2023-03-16T15:39:53.973Z,16.59
2023-03-16T15:42:22.841Z,16.55
2023-03-16T15:44:51.193Z,16.54
2023-03-16T15:47:19.727Z,16.54
2023-03-16T15:49:48.431Z,16.51
2023-03-16T15:52:27.775Z,16.48
2023-03-16T15:55:01.694Z,16.50
2023-03-16T15:57:30.308Z,16.51
2023-03-16T16:00:00.365Z,16.55
2023-03-16T16:02:31.388Z,16.49
2023-03-16T16:05:01.487Z,16.39
2023-03-16T16:07:30.118Z,16.35
2023-03-16T16:10:00.029Z,16.34
2023-03-16T16:12:32.686Z,16.33
2023-03-16T16:15:01.814Z,16.27
2023-03-16T16:17:47.970Z,16.20
2023-03-16T16:20:24.764Z,15.78
2023-03-16T16:22:54.270Z,15.97
2023-03-16T16:25:27.810Z,15.87
2023-03-16T16:27:56.582Z,15.77
2023-03-16T16:30:29.162Z,15.70
2023-03-16T16:32:58.929Z,15.64
2023-03-16T16:35:29.663Z,15.28
2023-03-16T16:37:58.313Z,15.45
2023-03-16T16:40:38.440Z,15.42
2023-03-16T16:43:08.421Z,15.38
2023-03-16T16:45:37.046Z,15.24
2023-03-16T16:48:23.367Z,15.21
2023-03-16T16:50:51.819Z,15.09
2023-03-16T16:53:21.799Z,15.07
2023-03-16T16:55:51.793Z,14.98
2023-03-16T16:58:24.639Z,14.92
2023-03-16T17:00:56.112Z,14.83
2023-03-16T17:03:27.177Z,14.73
2023-03-16T17:05:58.763Z,14.66
2023-03-16T17:08:27.619Z,14.57
2023-03-16T17:10:57.607Z,14.53
2023-03-16T17:13:30.061Z,14.49
2023-03-16T17:15:58.941Z,14.45
2023-03-16T17:18:27.318Z,14.42
2023-03-16T17:20:57.151Z,14.37
2023-03-16T17:23:29.802Z,14.33
2023-03-16T17:26:02.013Z,14.00
2023-03-16T17:28:33.329Z,14.27
2023-03-16T17:31:02.009Z,14.23
2023-03-16T17:33:31.059Z,14.16
2023-03-16T17:35:59.658Z,14.13
2023-03-16T17:38:28.069Z,14.07
2023-03-16T17:40:57.137Z,14.02
2023-03-16T17:43:27.298Z,13.97
2023-03-16T17:45:56.437Z,13.92
2023-03-16T17:48:25.594Z,13.85
2023-03-16T17:50:54.416Z,13.80
2023-03-16T17:53:23.200Z,13.73
2023-03-16T17:55:51.602Z,13.66
2023-03-16T17:58:28.262Z,13.57
2023-03-16T18:00:57.509Z,13.49
2023-03-16T18:03:30.402Z,13.44
2023-03-16T18:05:59.105Z,13.34
2023-03-16T18:08:29.468Z,13.24
2023-03-16T18:11:00.837Z,13.18
2023-03-16T18:13:33.471Z,13.07
2023-03-16T18:16:05.196Z,12.96
2023-03-16T18:18:37.875Z,12.91
2023-03-16T18:21:07.030Z,12.86
2023-03-16T18:23:37.138Z,12.84
2023-03-16T18:26:07.162Z,12.73
2023-03-16T18:28:37.020Z,12.47
2023-03-16T18:31:07.909Z,12.49
2023-03-16T18:33:39.683Z,12.31
2023-03-16T18:36:18.959Z,12.11
2023-03-16T18:38:50.690Z,11.95
2023-03-16T18:41:22.788Z,11.87
2023-03-16T18:43:54.490Z,12.62
2023-03-16T18:46:26.277Z,11.95
2023-03-16T18:48:56.994Z,11.86
2023-03-16T18:51:25.828Z,11.76
2023-03-16T18:53:55.121Z,11.70
2023-03-16T18:56:27.275Z,11.65
2023-03-16T18:58:57.672Z,11.55
2023-03-16T19:01:28.324Z,11.47
2023-03-16T19:03:58.449Z,11.42
2023-03-16T19:06:30.555Z,11.29
2023-03-16T19:09:04.275Z,11.22
2023-03-16T19:11:44.234Z,11.09
2023-03-16T19:14:22.819Z,10.97
2023-03-16T19:16:51.703Z,10.95
2023-03-16T19:19:22.060Z,10.95
2023-03-16T19:21:52.165Z,10.88
2023-03-16T19:24:26.729Z,10.84
2023-03-16T19:26:56.114Z,10.81
2023-03-16T19:29:32.515Z,10.76
2023-03-16T19:32:01.408Z,10.70
2023-03-16T19:34:30.504Z,10.69
2023-03-16T19:36:59.393Z,10.66
2023-03-16T19:39:28.001Z,10.57
2023-03-16T19:41:59.521Z,10.45
2023-03-16T19:44:29.871Z,10.37
2023-03-16T19:47:01.308Z,10.22
2023-03-16T19:49:30.785Z,10.13
2023-03-16T19:51:59.168Z,10.03
2023-03-16T19:54:29.430Z,9.92
2023-03-16T19:57:01.298Z,9.71
2023-03-16T19:59:34.805Z,9.62
2023-03-16T20:02:03.615Z,9.51
2023-03-16T20:04:32.342Z,9.48
2023-03-16T20:07:00.785Z,9.37
2023-03-16T20:09:29.113Z,9.37
2023-03-16T20:11:57.596Z,9.35
2023-03-16T20:14:34.459Z,9.31
2023-03-16T20:17:03.047Z,9.33
2023-03-16T20:19:31.538Z,9.41
2023-03-16T20:22:00.134Z,9.42
2023-03-16T20:24:29.069Z,9.43
2023-03-16T20:26:57.832Z,9.35
2023-03-16T20:29:32.533Z,9.32
2023-03-16T20:32:02.505Z,9.27
2023-03-16T20:34:32.722Z,9.28
2023-03-16T20:37:02.135Z,9.27
2023-03-16T20:39:30.554Z,9.28
2023-03-16T20:41:59.015Z,9.25
2023-03-16T20:44:30.395Z,9.21
2023-03-16T20:46:58.948Z,9.32
2023-03-16T20:49:34.200Z,9.27
2023-03-16T20:52:02.830Z,9.53
2023-03-16T20:54:31.471Z,9.59
2023-03-16T20:57:00.420Z,9.67
2023-03-16T20:59:30.286Z,9.44
2023-03-16T21:01:58.720Z,9.76
2023-03-16T21:04:30.129Z,9.74
2023-03-16T21:07:00.235Z,9.75
2023-03-16T21:09:31.198Z,9.71
2023-03-16T21:11:59.542Z,9.75
2023-03-16T21:14:27.942Z,9.75
2023-03-16T21:16:56.503Z,9.74
2023-03-16T21:19:25.159Z,9.78
2023-03-16T21:21:53.716Z,9.82
2023-03-16T21:24:23.459Z,9.76
2023-03-16T21:26:52.050Z,9.73
2023-03-16T21:29:23.890Z,9.71
2023-03-16T21:31:52.835Z,9.75
2023-03-16T21:34:25.655Z,9.55
2023-03-16T21:36:54.308Z,9.74
2023-03-16T21:39:25.417Z,9.71
2023-03-16T21:41:54.376Z,9.73
2023-03-16T21:44:22.892Z,9.82
2023-03-16T21:46:51.614Z,9.76
2023-03-16T21:49:20.097Z,9.88
2023-03-16T21:51:50.159Z,9.62
2023-03-16T21:54:19.346Z,9.84
2023-03-16T21:56:50.491Z,9.91
2023-03-16T21:59:19.199Z,9.93
2023-03-16T22:02:00.850Z,9.95
2023-03-16T22:04:30.005Z,9.72
2023-03-16T22:06:58.431Z,9.89
2023-03-16T22:09:30.376Z,9.88
2023-03-16T22:12:00.623Z,9.89
2023-03-16T22:14:29.279Z,9.90
2023-03-16T22:16:57.852Z,9.93
2023-03-16T22:19:27.418Z,9.98
2023-03-16T22:21:57.429Z,10.01
2023-03-16T22:24:28.444Z,10.05
2023-03-16T22:26:57.272Z,10.03
2023-03-16T22:29:28.638Z,10.09
2023-03-16T22:32:01.355Z,10.07
2023-03-16T22:34:33.299Z,10.02
2023-03-16T22:37:02.900Z,9.96
2023-03-16T22:39:35.042Z,9.76
2023-03-16T22:42:04.202Z,10.02
2023-03-16T22:44:34.055Z,9.99
2023-03-16T22:47:02.441Z,10.01
2023-03-16T22:49:30.882Z,9.98
2023-03-16T22:51:59.484Z,9.15
2023-03-16T22:54:30.347Z,9.96
2023-03-16T22:56:58.768Z,9.89
2023-03-16T22:59:28.813Z,9.85
2023-03-16T23:01:58.924Z,9.81
2023-03-16T23:04:32.747Z,9.80
2023-03-16T23:07:01.239Z,9.82
2023-03-16T23:09:29.831Z,9.84
2023-03-16T23:11:59.610Z,9.82
2023-03-16T23:14:32.295Z,9.03
2023-03-16T23:17:03.129Z,9.88
2023-03-16T23:19:34.178Z,9.92
2023-03-16T23:22:05.074Z,10.00
2023-03-16T23:24:33.866Z,9.91
2023-03-16T23:27:02.889Z,10.06
2023-03-16T23:29:31.917Z,10.11
2023-03-16T23:32:00.331Z,10.14
2023-03-16T23:34:30.165Z,10.22
2023-03-16T23:36:58.677Z,10.26
2023-03-16T23:39:28.500Z,10.26
2023-03-16T23:41:57.437Z,10.29
2023-03-16T23:44:28.867Z,10.23
2023-03-16T23:46:57.811Z,10.34
2023-03-16T23:49:31.429Z,10.36
2023-03-16T23:52:02.230Z,10.36
2023-03-16T23:54:32.967Z,10.25
2023-03-16T23:57:01.526Z,10.45
2023-03-16T23:59:29.923Z,10.49
